JAL2026 PKMJ-RJTT
Flight info
| Callsign | JAL2026 |
|---|---|
| Flight time | 5h 58m |
| Altitude | 40000 |
| Route | MAJ DCT 10E70 DCT 14N166E DCT 19E60 DCT 24N155E DCT 27E50 KAKNI TONIK G223 DAGDA Y820 ANSAD Y824 AROSA |
| Aircraft | B738/M-SDE2E3FGHIRWXY/LB1 |
Departure
| Time | 2026-04-21 03:20 |
|---|---|
| Airport | Marshall Islands International Airport (PKMJ) |
Arrival
| Time | 2026-04-21 09:18 |
|---|---|
| Airport | Tokyo Haneda International Airport (RJTT) |
| Time | Latitude | Longitude | Altitude | Speed | Heading |
|---|---|---|---|---|---|
| 2026-04-21 03:01 | 7.06823 | 171.28096 | 14 ft | 0 kts | 31° |
| 2026-04-21 03:12 | 7.06816 | 171.28091 | 14 ft | 2 kts | 30° |
| 2026-04-21 03:13 | 7.06802 | 171.28085 | 14 ft | 2 kts | 10° |
| 2026-04-21 03:13 | 7.06787 | 171.28084 | 14 ft | 2 kts | 356° |
| 2026-04-21 03:13 | 7.06772 | 171.28087 | 14 ft | 2 kts | 340° |
| 2026-04-21 03:13 | 7.06759 | 171.28095 | 14 ft | 2 kts | 324° |
| 2026-04-21 03:14 | 7.06747 | 171.28105 | 14 ft | 2 kts | 308° |
| 2026-04-21 03:14 | 7.06740 | 171.28117 | 14 ft | 2 kts | 293° |
| 2026-04-21 03:14 | 7.06735 | 171.28131 | 14 ft | 2 kts | 277° |
| 2026-04-21 03:14 | 7.06735 | 171.28146 | 14 ft | 2 kts | 262° |
| 2026-04-21 03:15 | 7.06737 | 171.28154 | 14 ft | 1 kts | 253° |
| 2026-04-21 03:15 | 7.06738 | 171.28157 | 14 ft | 0 kts | 255° |
| 2026-04-21 03:16 | 7.06731 | 171.28133 | 14 ft | 7 kts | 255° |
| 2026-04-21 03:17 | 7.06712 | 171.28055 | 14 ft | 15 kts | 256° |
| 2026-04-21 03:17 | 7.06677 | 171.27910 | 17 ft | 27 kts | 256° |
| 2026-04-21 03:17 | 7.06621 | 171.27686 | 17 ft | 39 kts | 256° |
| 2026-04-21 03:17 | 7.06544 | 171.27368 | 15 ft | 54 kts | 257° |
| 2026-04-21 03:18 | 7.06441 | 171.26944 | 14 ft | 69 kts | 257° |
| 2026-04-21 03:18 | 7.06322 | 171.26459 | 17 ft | 63 kts | 256° |
| 2026-04-21 03:18 | 7.06279 | 171.26166 | 17 ft | 17 kts | 292° |
| 2026-04-21 03:18 | 7.06252 | 171.26140 | 17 ft | 9 kts | 99° |
| 2026-04-21 03:19 | 7.06259 | 171.26198 | 17 ft | 8 kts | 77° |
| 2026-04-21 03:19 | 7.06280 | 171.26282 | 17 ft | 15 kts | 76° |
| 2026-04-21 03:19 | 7.06371 | 171.26648 | 15 ft | 102 kts | 76° |
| 2026-04-21 03:19 | 7.06610 | 171.27628 | 105 ft | 176 kts | 75° |
| 2026-04-21 03:20 | 7.06888 | 171.28793 | 1068 ft | 170 kts | 76° |
| 2026-04-21 03:20 | 7.07249 | 171.29950 | 1463 ft | 181 kts | 58° |
| 2026-04-21 03:20 | 7.08275 | 171.30698 | 1778 ft | 195 kts | 13° |
| 2026-04-21 03:20 | 7.09627 | 171.30470 | 2083 ft | 211 kts | 329° |
| 2026-04-21 03:21 | 7.10720 | 171.29428 | 2513 ft | 222 kts | 314° |
| 2026-04-21 03:21 | 7.11917 | 171.28354 | 2826 ft | 240 kts | 326° |
| 2026-04-21 03:21 | 7.13451 | 171.27499 | 3410 ft | 260 kts | 336° |
| 2026-04-21 03:21 | 7.15136 | 171.26762 | 4267 ft | 272 kts | 338° |
| 2026-04-21 03:22 | 7.16893 | 171.26022 | 5289 ft | 277 kts | 338° |
| 2026-04-21 03:22 | 7.18661 | 171.25261 | 6270 ft | 282 kts | 337° |
| 2026-04-21 03:22 | 7.20474 | 171.24468 | 7256 ft | 287 kts | 337° |
| 2026-04-21 03:22 | 7.22289 | 171.23666 | 8202 ft | 291 kts | 336° |
| 2026-04-21 03:23 | 7.24150 | 171.22842 | 9124 ft | 296 kts | 336° |
| 2026-04-21 03:23 | 7.26068 | 171.21994 | 10032 ft | 301 kts | 336° |
| 2026-04-21 03:23 | 7.28021 | 171.21132 | 10708 ft | 315 kts | 337° |
| 2026-04-21 03:23 | 7.30079 | 171.20224 | 11280 ft | 331 kts | 337° |
| 2026-04-21 03:24 | 7.32250 | 171.19266 | 11808 ft | 348 kts | 337° |
| 2026-04-21 03:24 | 7.34520 | 171.18263 | 12291 ft | 365 kts | 337° |
| 2026-04-21 03:24 | 7.36897 | 171.17215 | 12766 ft | 380 kts | 336° |
| 2026-04-21 03:24 | 7.39355 | 171.16130 | 13333 ft | 391 kts | 336° |
| 2026-04-21 03:25 | 7.41879 | 171.15015 | 14066 ft | 397 kts | 336° |
| 2026-04-21 03:25 | 7.44394 | 171.13902 | 14804 ft | 401 kts | 336° |
| 2026-04-21 03:25 | 7.46979 | 171.12759 | 15524 ft | 406 kts | 336° |
| 2026-04-21 03:25 | 7.49587 | 171.11607 | 16250 ft | 410 kts | 336° |
| 2026-04-21 03:26 | 7.52230 | 171.10437 | 16911 ft | 415 kts | 336° |
| 2026-04-21 03:26 | 7.54913 | 171.09251 | 17567 ft | 420 kts | 336° |
| 2026-04-21 03:26 | 7.57603 | 171.08061 | 18274 ft | 422 kts | 336° |
| 2026-04-21 03:26 | 7.60291 | 171.06873 | 18904 ft | 426 kts | 336° |
| 2026-04-21 03:27 | 7.63054 | 171.05650 | 19547 ft | 429 kts | 336° |
| 2026-04-21 03:27 | 7.65817 | 171.04428 | 20148 ft | 433 kts | 336° |
| 2026-04-21 03:27 | 7.68621 | 171.03189 | 20734 ft | 436 kts | 337° |
| 2026-04-21 03:27 | 7.71443 | 171.01941 | 21302 ft | 440 kts | 337° |
| 2026-04-21 03:28 | 7.74272 | 171.00690 | 21854 ft | 443 kts | 337° |
| 2026-04-21 03:28 | 7.77102 | 170.99438 | 22366 ft | 446 kts | 337° |
| 2026-04-21 03:28 | 7.79995 | 170.98158 | 22922 ft | 449 kts | 337° |
| 2026-04-21 03:28 | 7.82895 | 170.96875 | 23497 ft | 452 kts | 337° |
| 2026-04-21 03:29 | 7.85807 | 170.95586 | 24008 ft | 455 kts | 337° |
| 2026-04-21 03:29 | 7.88697 | 170.94305 | 24557 ft | 457 kts | 337° |
| 2026-04-21 03:29 | 7.91627 | 170.93008 | 25106 ft | 459 kts | 337° |
| 2026-04-21 03:29 | 7.94570 | 170.91704 | 25622 ft | 462 kts | 337° |
| 2026-04-21 03:30 | 7.97509 | 170.90401 | 26120 ft | 464 kts | 337° |
| 2026-04-21 03:30 | 8.00498 | 170.89076 | 26614 ft | 466 kts | 337° |
| 2026-04-21 03:30 | 8.03449 | 170.87767 | 27068 ft | 469 kts | 337° |
| 2026-04-21 03:30 | 8.06455 | 170.86433 | 27544 ft | 472 kts | 337° |
| 2026-04-21 03:31 | 8.09422 | 170.85117 | 27999 ft | 474 kts | 337° |
| 2026-04-21 03:31 | 8.12451 | 170.83774 | 28419 ft | 477 kts | 337° |
| 2026-04-21 03:31 | 8.15473 | 170.82431 | 29098 ft | 474 kts | 337° |
| 2026-04-21 03:31 | 8.18485 | 170.81094 | 29792 ft | 470 kts | 337° |
| 2026-04-21 03:32 | 8.21472 | 170.79767 | 30324 ft | 470 kts | 337° |
| 2026-04-21 03:32 | 8.24435 | 170.78451 | 30895 ft | 469 kts | 337° |
| 2026-04-21 03:32 | 8.27442 | 170.77116 | 31455 ft | 468 kts | 337° |
| 2026-04-21 03:32 | 8.30413 | 170.75797 | 32009 ft | 466 kts | 337° |
| 2026-04-21 03:33 | 8.33363 | 170.74486 | 32543 ft | 465 kts | 337° |
| 2026-04-21 03:33 | 8.36335 | 170.73166 | 33185 ft | 462 kts | 337° |
| 2026-04-21 03:33 | 8.39275 | 170.71858 | 33921 ft | 458 kts | 337° |
| 2026-04-21 03:33 | 8.42176 | 170.70569 | 34540 ft | 455 kts | 337° |
| 2026-04-21 03:34 | 8.45042 | 170.69295 | 35173 ft | 452 kts | 337° |
| 2026-04-21 03:34 | 8.47914 | 170.68018 | 35816 ft | 448 kts | 337° |
| 2026-04-21 03:34 | 8.50811 | 170.66728 | 36316 ft | 447 kts | 337° |
| 2026-04-21 03:34 | 8.53674 | 170.65454 | 36842 ft | 445 kts | 337° |
| 2026-04-21 03:35 | 8.56513 | 170.64192 | 37360 ft | 443 kts | 337° |
| 2026-04-21 03:35 | 8.59345 | 170.62932 | 37820 ft | 441 kts | 337° |
| 2026-04-21 03:35 | 8.62145 | 170.61685 | 38220 ft | 441 kts | 337° |
| 2026-04-21 03:35 | 8.64986 | 170.60422 | 38655 ft | 439 kts | 337° |
| 2026-04-21 03:36 | 8.67787 | 170.59174 | 39046 ft | 439 kts | 337° |
| 2026-04-21 03:36 | 8.70580 | 170.57930 | 39422 ft | 438 kts | 337° |
| 2026-04-21 03:36 | 8.73367 | 170.56689 | 39737 ft | 438 kts | 337° |
| 2026-04-21 03:36 | 8.76182 | 170.55435 | 39863 ft | 440 kts | 337° |
| 2026-04-21 03:37 | 8.81771 | 170.52946 | 39864 ft | 437 kts | 337° |
| 2026-04-21 03:37 | 8.87349 | 170.50461 | 39864 ft | 438 kts | 337° |
| 2026-04-21 03:38 | 8.92968 | 170.47957 | 39863 ft | 439 kts | 337° |
| 2026-04-21 03:38 | 8.98528 | 170.45477 | 39863 ft | 438 kts | 337° |
| 2026-04-21 03:39 | 9.04122 | 170.42981 | 39864 ft | 439 kts | 337° |
| 2026-04-21 03:39 | 9.09748 | 170.40469 | 39864 ft | 439 kts | 337° |
| 2026-04-21 03:40 | 9.15335 | 170.37976 | 39863 ft | 439 kts | 337° |
| 2026-04-21 03:40 | 9.20940 | 170.35474 | 39864 ft | 439 kts | 337° |
| 2026-04-21 03:41 | 9.26568 | 170.32960 | 39864 ft | 440 kts | 337° |
| 2026-04-21 03:41 | 9.32186 | 170.30450 | 39864 ft | 440 kts | 337° |
| 2026-04-21 03:42 | 9.37795 | 170.27945 | 39864 ft | 440 kts | 337° |
| 2026-04-21 03:42 | 9.43412 | 170.25433 | 39864 ft | 440 kts | 337° |
| 2026-04-21 03:43 | 9.49035 | 170.22917 | 39865 ft | 441 kts | 337° |
| 2026-04-21 03:43 | 9.54652 | 170.20404 | 39865 ft | 440 kts | 337° |
| 2026-04-21 03:44 | 9.60256 | 170.17896 | 39864 ft | 440 kts | 337° |
| 2026-04-21 03:44 | 9.65908 | 170.15364 | 39863 ft | 441 kts | 337° |
| 2026-04-21 03:45 | 9.71508 | 170.12856 | 39864 ft | 441 kts | 337° |
| 2026-04-21 03:45 | 9.77163 | 170.10323 | 39862 ft | 442 kts | 337° |
| 2026-04-21 03:46 | 9.82765 | 170.07811 | 39864 ft | 441 kts | 337° |
| 2026-04-21 03:46 | 9.88408 | 170.05281 | 39862 ft | 442 kts | 337° |
| 2026-04-21 03:47 | 9.94055 | 170.02750 | 39863 ft | 441 kts | 337° |
| 2026-04-21 03:47 | 9.99505 | 169.99831 | 39864 ft | 444 kts | 327° |
| 2026-04-21 03:48 | 10.04336 | 169.95872 | 39864 ft | 446 kts | 319° |
| 2026-04-21 03:48 | 10.08832 | 169.91545 | 39864 ft | 446 kts | 317° |
| 2026-04-21 03:49 | 10.13274 | 169.87135 | 39864 ft | 447 kts | 317° |
| 2026-04-21 03:49 | 10.17756 | 169.82692 | 39863 ft | 447 kts | 317° |
| 2026-04-21 03:50 | 10.22211 | 169.78294 | 39864 ft | 447 kts | 317° |
| 2026-04-21 03:50 | 10.26688 | 169.73891 | 39864 ft | 447 kts | 317° |
| 2026-04-21 03:51 | 10.31152 | 169.69504 | 39863 ft | 447 kts | 317° |
| 2026-04-21 03:51 | 10.35620 | 169.65114 | 39864 ft | 447 kts | 317° |
| 2026-04-21 03:52 | 10.40094 | 169.60716 | 39864 ft | 447 kts | 317° |
| 2026-04-21 03:52 | 10.44560 | 169.56325 | 39864 ft | 447 kts | 317° |
| 2026-04-21 03:53 | 10.49042 | 169.51915 | 39864 ft | 448 kts | 317° |
| 2026-04-21 03:53 | 10.53516 | 169.47511 | 39864 ft | 447 kts | 317° |
| 2026-04-21 03:54 | 10.57983 | 169.43112 | 39864 ft | 447 kts | 317° |
| 2026-04-21 03:54 | 10.62449 | 169.38713 | 39864 ft | 447 kts | 317° |
| 2026-04-21 03:55 | 10.66924 | 169.34303 | 39864 ft | 447 kts | 317° |
| 2026-04-21 03:55 | 10.71375 | 169.29916 | 39864 ft | 447 kts | 317° |
| 2026-04-21 03:56 | 10.75855 | 169.25497 | 39864 ft | 446 kts | 317° |
| 2026-04-21 03:56 | 10.80297 | 169.21112 | 39864 ft | 446 kts | 317° |
| 2026-04-21 03:57 | 10.84764 | 169.16704 | 39864 ft | 446 kts | 317° |
| 2026-04-21 03:57 | 10.89206 | 169.12317 | 39864 ft | 446 kts | 317° |
| 2026-04-21 03:58 | 10.93660 | 169.07915 | 39864 ft | 446 kts | 317° |
| 2026-04-21 03:58 | 10.98091 | 169.03536 | 39863 ft | 446 kts | 317° |
| 2026-04-21 03:59 | 11.02547 | 168.99129 | 39863 ft | 445 kts | 316° |
| 2026-04-21 04:00 | 11.09203 | 168.92543 | 39863 ft | 445 kts | 317° |
| 2026-04-21 04:00 | 11.13645 | 168.88144 | 39863 ft | 444 kts | 316° |
| 2026-04-21 04:01 | 11.18074 | 168.83756 | 39863 ft | 445 kts | 316° |
| 2026-04-21 04:01 | 11.22518 | 168.79352 | 39863 ft | 444 kts | 316° |
| 2026-04-21 04:02 | 11.26947 | 168.74960 | 39863 ft | 443 kts | 316° |
| 2026-04-21 04:02 | 11.31380 | 168.70566 | 39863 ft | 444 kts | 316° |
| 2026-04-21 04:03 | 11.35802 | 168.66177 | 39863 ft | 443 kts | 316° |
| 2026-04-21 04:03 | 11.40218 | 168.61792 | 39863 ft | 442 kts | 316° |
| 2026-04-21 04:04 | 11.44603 | 168.57437 | 39863 ft | 443 kts | 316° |
| 2026-04-21 04:04 | 11.49030 | 168.53036 | 39863 ft | 442 kts | 316° |
| 2026-04-21 04:05 | 11.53423 | 168.48669 | 39863 ft | 442 kts | 316° |
| 2026-04-21 04:05 | 11.57815 | 168.44302 | 39863 ft | 441 kts | 316° |
| 2026-04-21 04:06 | 11.62228 | 168.39911 | 39864 ft | 441 kts | 316° |
| 2026-04-21 04:06 | 11.66608 | 168.35553 | 39863 ft | 440 kts | 316° |
| 2026-04-21 04:07 | 11.70994 | 168.31184 | 39864 ft | 440 kts | 316° |
| 2026-04-21 04:07 | 11.75382 | 168.26813 | 39864 ft | 440 kts | 316° |
| 2026-04-21 04:08 | 11.79778 | 168.22430 | 39864 ft | 439 kts | 316° |
| 2026-04-21 04:08 | 11.84119 | 168.18100 | 39863 ft | 438 kts | 316° |
| 2026-04-21 04:09 | 11.88497 | 168.13731 | 39863 ft | 439 kts | 316° |
| 2026-04-21 04:09 | 11.92859 | 168.09375 | 39863 ft | 438 kts | 316° |
| 2026-04-21 04:10 | 11.97199 | 168.05041 | 39865 ft | 438 kts | 316° |
| 2026-04-21 04:10 | 12.01577 | 168.00670 | 39863 ft | 439 kts | 316° |
| 2026-04-21 04:11 | 12.05942 | 167.96307 | 39866 ft | 439 kts | 316° |
| 2026-04-21 04:11 | 12.10305 | 167.91940 | 39868 ft | 438 kts | 316° |
| 2026-04-21 04:12 | 12.14651 | 167.87592 | 39868 ft | 440 kts | 316° |
| 2026-04-21 04:12 | 12.19024 | 167.83215 | 39871 ft | 439 kts | 316° |
| 2026-04-21 04:13 | 12.23413 | 167.78818 | 39871 ft | 441 kts | 315° |
| 2026-04-21 04:13 | 12.27771 | 167.74451 | 39874 ft | 442 kts | 315° |
| 2026-04-21 04:14 | 12.32174 | 167.70036 | 39875 ft | 442 kts | 315° |
| 2026-04-21 04:14 | 12.36563 | 167.65637 | 39876 ft | 443 kts | 315° |
| 2026-04-21 04:15 | 12.40970 | 167.61214 | 39877 ft | 442 kts | 315° |
| 2026-04-21 04:15 | 12.45369 | 167.56796 | 39878 ft | 443 kts | 315° |
| 2026-04-21 04:16 | 12.49782 | 167.52362 | 39879 ft | 444 kts | 315° |
| 2026-04-21 04:16 | 12.54192 | 167.47931 | 39880 ft | 444 kts | 315° |
| 2026-04-21 04:17 | 12.58613 | 167.43484 | 39879 ft | 445 kts | 315° |
| 2026-04-21 04:17 | 12.63025 | 167.39046 | 39880 ft | 444 kts | 315° |
| 2026-04-21 04:18 | 12.67425 | 167.34618 | 39882 ft | 445 kts | 315° |
| 2026-04-21 04:18 | 12.71846 | 167.30165 | 39883 ft | 445 kts | 315° |
| 2026-04-21 04:19 | 12.76238 | 167.25738 | 39883 ft | 445 kts | 315° |
| 2026-04-21 04:19 | 12.80669 | 167.21269 | 39883 ft | 445 kts | 315° |
| 2026-04-21 04:20 | 12.85090 | 167.16809 | 39884 ft | 444 kts | 315° |
| 2026-04-21 04:20 | 12.89505 | 167.12355 | 39884 ft | 446 kts | 315° |
| 2026-04-21 04:21 | 12.93912 | 167.07907 | 39884 ft | 444 kts | 315° |
| 2026-04-21 04:21 | 12.98330 | 167.03442 | 39884 ft | 444 kts | 315° |
| 2026-04-21 04:22 | 13.02723 | 166.99002 | 39883 ft | 444 kts | 315° |
| 2026-04-21 04:22 | 13.07123 | 166.94553 | 39883 ft | 445 kts | 315° |
| 2026-04-21 04:23 | 13.11531 | 166.90093 | 39881 ft | 445 kts | 315° |
| 2026-04-21 04:23 | 13.15953 | 166.85616 | 39882 ft | 444 kts | 315° |
| 2026-04-21 04:24 | 13.20341 | 166.81171 | 39883 ft | 445 kts | 315° |
| 2026-04-21 04:24 | 13.24759 | 166.76694 | 39880 ft | 445 kts | 315° |
| 2026-04-21 04:25 | 13.29173 | 166.72218 | 39881 ft | 447 kts | 315° |
| 2026-04-21 04:25 | 13.33575 | 166.67752 | 39881 ft | 446 kts | 315° |
| 2026-04-21 04:26 | 13.38014 | 166.63245 | 39885 ft | 446 kts | 315° |
| 2026-04-21 04:26 | 13.42440 | 166.58749 | 39884 ft | 447 kts | 315° |
| 2026-04-21 04:27 | 13.46863 | 166.54256 | 39883 ft | 447 kts | 315° |
| 2026-04-21 04:27 | 13.51288 | 166.49757 | 39885 ft | 447 kts | 315° |
| 2026-04-21 04:28 | 13.55694 | 166.45274 | 39882 ft | 448 kts | 315° |
| 2026-04-21 04:28 | 13.60118 | 166.40771 | 39884 ft | 448 kts | 315° |
| 2026-04-21 04:29 | 13.64560 | 166.36249 | 39883 ft | 448 kts | 315° |
| 2026-04-21 04:29 | 13.68986 | 166.31738 | 39882 ft | 449 kts | 315° |
| 2026-04-21 04:30 | 13.73439 | 166.27197 | 39884 ft | 448 kts | 315° |
| 2026-04-21 04:30 | 13.77876 | 166.22672 | 39884 ft | 449 kts | 315° |
| 2026-04-21 04:31 | 13.82324 | 166.18132 | 39883 ft | 448 kts | 315° |
| 2026-04-21 04:31 | 13.86764 | 166.13596 | 39883 ft | 449 kts | 315° |
| 2026-04-21 04:32 | 13.91213 | 166.09050 | 39884 ft | 450 kts | 315° |
| 2026-04-21 04:32 | 13.95669 | 166.04494 | 39883 ft | 449 kts | 315° |
| 2026-04-21 04:33 | 14.00098 | 165.99963 | 39883 ft | 449 kts | 315° |
| 2026-04-21 04:33 | 14.04426 | 165.95210 | 39884 ft | 449 kts | 312° |
| 2026-04-21 04:34 | 14.08564 | 165.90363 | 39883 ft | 449 kts | 311° |
| 2026-04-21 04:34 | 14.12693 | 165.85507 | 39884 ft | 449 kts | 311° |
| 2026-04-21 04:35 | 14.16822 | 165.80688 | 39884 ft | 449 kts | 312° |
| 2026-04-21 04:35 | 14.20974 | 165.75870 | 39884 ft | 449 kts | 312° |
| 2026-04-21 04:36 | 14.25151 | 165.71034 | 39884 ft | 449 kts | 312° |
| 2026-04-21 04:36 | 14.29319 | 165.66213 | 39884 ft | 449 kts | 312° |
| 2026-04-21 04:37 | 14.33482 | 165.61394 | 39884 ft | 448 kts | 312° |
| 2026-04-21 04:37 | 14.37636 | 165.56583 | 39884 ft | 449 kts | 312° |
| 2026-04-21 04:38 | 14.41810 | 165.51747 | 39885 ft | 448 kts | 312° |
| 2026-04-21 04:38 | 14.45969 | 165.46924 | 39883 ft | 449 kts | 312° |
| 2026-04-21 04:39 | 14.50137 | 165.42087 | 39884 ft | 449 kts | 312° |
| 2026-04-21 04:39 | 14.54270 | 165.37288 | 39884 ft | 448 kts | 312° |
| 2026-04-21 04:40 | 14.58420 | 165.32466 | 39884 ft | 449 kts | 311° |
| 2026-04-21 04:40 | 14.62571 | 165.27641 | 39884 ft | 450 kts | 311° |
| 2026-04-21 04:41 | 14.66747 | 165.22784 | 39884 ft | 449 kts | 311° |
| 2026-04-21 04:41 | 14.70882 | 165.17972 | 39884 ft | 449 kts | 312° |
| 2026-04-21 04:42 | 14.75041 | 165.13130 | 39884 ft | 450 kts | 312° |
| 2026-04-21 04:42 | 14.79189 | 165.08298 | 39884 ft | 450 kts | 311° |
| 2026-04-21 04:43 | 14.83343 | 165.03453 | 39884 ft | 449 kts | 311° |
| 2026-04-21 04:43 | 14.87515 | 164.98585 | 39884 ft | 451 kts | 311° |
| 2026-04-21 04:44 | 14.91660 | 164.93747 | 39884 ft | 449 kts | 311° |
| 2026-04-21 04:44 | 14.95804 | 164.88904 | 39886 ft | 451 kts | 311° |
| 2026-04-21 04:45 | 14.99962 | 164.84044 | 39886 ft | 450 kts | 311° |
| 2026-04-21 04:45 | 15.04124 | 164.79176 | 39890 ft | 450 kts | 311° |
| 2026-04-21 04:46 | 15.08265 | 164.74330 | 39890 ft | 449 kts | 311° |
| 2026-04-21 04:46 | 15.12411 | 164.69473 | 39890 ft | 450 kts | 311° |
| 2026-04-21 04:47 | 15.16569 | 164.64601 | 39892 ft | 449 kts | 311° |
| 2026-04-21 04:47 | 15.20708 | 164.59746 | 39895 ft | 449 kts | 311° |
| 2026-04-21 04:48 | 15.24855 | 164.54880 | 39897 ft | 448 kts | 311° |
| 2026-04-21 04:48 | 15.29017 | 164.49992 | 39898 ft | 449 kts | 311° |
| 2026-04-21 04:49 | 15.33156 | 164.45129 | 39897 ft | 450 kts | 311° |
| 2026-04-21 04:49 | 15.37304 | 164.40251 | 39899 ft | 449 kts | 311° |
| 2026-04-21 04:50 | 15.41442 | 164.35382 | 39900 ft | 450 kts | 311° |
| 2026-04-21 04:50 | 15.45590 | 164.30499 | 39902 ft | 450 kts | 310° |
| 2026-04-21 04:51 | 15.49726 | 164.25629 | 39901 ft | 450 kts | 310° |
| 2026-04-21 04:51 | 15.53867 | 164.20746 | 39902 ft | 450 kts | 310° |
| 2026-04-21 04:52 | 15.58013 | 164.15854 | 39902 ft | 451 kts | 310° |
| 2026-04-21 04:52 | 15.62171 | 164.10947 | 39904 ft | 451 kts | 310° |
| 2026-04-21 04:53 | 15.66328 | 164.06036 | 39904 ft | 451 kts | 310° |
| 2026-04-21 04:53 | 15.70474 | 164.01137 | 39905 ft | 451 kts | 310° |
| 2026-04-21 04:54 | 15.74619 | 163.96234 | 39903 ft | 450 kts | 310° |
| 2026-04-21 04:54 | 15.78777 | 163.91315 | 39904 ft | 451 kts | 310° |
| 2026-04-21 04:55 | 15.82908 | 163.86423 | 39903 ft | 451 kts | 310° |
| 2026-04-21 04:55 | 15.87022 | 163.81547 | 39903 ft | 450 kts | 310° |
| 2026-04-21 04:56 | 15.91162 | 163.76636 | 39902 ft | 450 kts | 310° |
| 2026-04-21 04:56 | 15.95275 | 163.71756 | 39903 ft | 450 kts | 310° |
| 2026-04-21 04:57 | 15.99416 | 163.66840 | 39905 ft | 450 kts | 310° |
| 2026-04-21 04:57 | 16.03535 | 163.61945 | 39904 ft | 450 kts | 310° |
| 2026-04-21 04:58 | 16.07656 | 163.57044 | 39904 ft | 450 kts | 310° |
| 2026-04-21 04:58 | 16.11778 | 163.52138 | 39904 ft | 449 kts | 310° |
| 2026-04-21 04:59 | 16.15893 | 163.47237 | 39904 ft | 450 kts | 310° |
| 2026-04-21 04:59 | 16.20005 | 163.42337 | 39905 ft | 449 kts | 310° |
| 2026-04-21 05:00 | 16.24113 | 163.37437 | 39904 ft | 449 kts | 310° |
| 2026-04-21 05:00 | 16.30251 | 163.30113 | 39904 ft | 448 kts | 310° |
| 2026-04-21 05:01 | 16.34357 | 163.25207 | 39904 ft | 448 kts | 310° |
| 2026-04-21 05:01 | 16.38432 | 163.20337 | 39903 ft | 448 kts | 310° |
| 2026-04-21 05:02 | 16.42540 | 163.15424 | 39904 ft | 448 kts | 310° |
| 2026-04-21 05:02 | 16.46643 | 163.10512 | 39904 ft | 448 kts | 310° |
| 2026-04-21 05:03 | 16.50715 | 163.05635 | 39905 ft | 448 kts | 310° |
| 2026-04-21 05:03 | 16.54806 | 163.00732 | 39904 ft | 447 kts | 310° |
| 2026-04-21 05:04 | 16.58888 | 162.95836 | 39905 ft | 448 kts | 310° |
| 2026-04-21 05:04 | 16.62971 | 162.90933 | 39904 ft | 448 kts | 310° |
| 2026-04-21 05:05 | 16.67063 | 162.86018 | 39904 ft | 447 kts | 310° |
| 2026-04-21 05:05 | 16.71119 | 162.81145 | 39904 ft | 447 kts | 310° |
| 2026-04-21 05:06 | 16.75211 | 162.76222 | 39904 ft | 447 kts | 310° |
| 2026-04-21 05:06 | 16.79299 | 162.71301 | 39905 ft | 447 kts | 310° |
| 2026-04-21 05:07 | 16.83361 | 162.66408 | 39904 ft | 448 kts | 310° |
| 2026-04-21 05:07 | 16.87454 | 162.61475 | 39905 ft | 447 kts | 310° |
| 2026-04-21 05:08 | 16.91512 | 162.56580 | 39905 ft | 448 kts | 310° |
| 2026-04-21 05:08 | 16.95596 | 162.51649 | 39905 ft | 448 kts | 310° |
| 2026-04-21 05:09 | 16.99674 | 162.46724 | 39905 ft | 448 kts | 310° |
| 2026-04-21 05:09 | 17.03745 | 162.41803 | 39905 ft | 448 kts | 310° |
| 2026-04-21 05:10 | 17.07830 | 162.36859 | 39905 ft | 447 kts | 310° |
| 2026-04-21 05:10 | 17.11907 | 162.31924 | 39905 ft | 448 kts | 310° |
| 2026-04-21 05:11 | 17.15982 | 162.26985 | 39905 ft | 448 kts | 310° |
| 2026-04-21 05:11 | 17.20046 | 162.22060 | 39905 ft | 449 kts | 310° |
| 2026-04-21 05:12 | 17.24134 | 162.17101 | 39905 ft | 449 kts | 310° |
| 2026-04-21 05:12 | 17.28201 | 162.12161 | 39904 ft | 449 kts | 310° |
| 2026-04-21 05:13 | 17.32284 | 162.07201 | 39905 ft | 450 kts | 310° |
| 2026-04-21 05:13 | 17.36380 | 162.02219 | 39905 ft | 450 kts | 310° |
| 2026-04-21 05:14 | 17.40474 | 161.97235 | 39904 ft | 450 kts | 310° |
| 2026-04-21 05:14 | 17.44575 | 161.92242 | 39904 ft | 450 kts | 310° |
| 2026-04-21 05:15 | 17.48648 | 161.87280 | 39904 ft | 450 kts | 310° |
| 2026-04-21 05:15 | 17.52756 | 161.82268 | 39904 ft | 450 kts | 310° |
| 2026-04-21 05:16 | 17.56858 | 161.77263 | 39904 ft | 450 kts | 310° |
| 2026-04-21 05:16 | 17.60930 | 161.72287 | 39904 ft | 450 kts | 310° |
| 2026-04-21 05:17 | 17.65021 | 161.67287 | 39904 ft | 451 kts | 310° |
| 2026-04-21 05:17 | 17.69117 | 161.62276 | 39904 ft | 450 kts | 310° |
| 2026-04-21 05:18 | 17.73185 | 161.57295 | 39905 ft | 451 kts | 310° |
| 2026-04-21 05:18 | 17.77267 | 161.52295 | 39905 ft | 451 kts | 310° |
| 2026-04-21 05:19 | 17.81367 | 161.47267 | 39904 ft | 452 kts | 310° |
| 2026-04-21 05:19 | 17.85454 | 161.42252 | 39905 ft | 452 kts | 310° |
| 2026-04-21 05:20 | 17.89542 | 161.37231 | 39905 ft | 452 kts | 310° |
| 2026-04-21 05:20 | 17.93636 | 161.32199 | 39905 ft | 452 kts | 309° |
| 2026-04-21 05:21 | 17.97705 | 161.27197 | 39905 ft | 452 kts | 309° |
| 2026-04-21 05:21 | 18.01793 | 161.22165 | 39905 ft | 453 kts | 309° |
| 2026-04-21 05:22 | 18.05895 | 161.17113 | 39904 ft | 453 kts | 309° |
| 2026-04-21 05:22 | 18.09986 | 161.12068 | 39904 ft | 453 kts | 309° |
| 2026-04-21 05:23 | 18.14067 | 161.07033 | 39904 ft | 453 kts | 309° |
| 2026-04-21 05:23 | 18.18168 | 161.01970 | 39905 ft | 453 kts | 309° |
| 2026-04-21 05:24 | 18.22256 | 160.96918 | 39904 ft | 454 kts | 309° |
| 2026-04-21 05:24 | 18.26362 | 160.91841 | 39905 ft | 454 kts | 309° |
| 2026-04-21 05:25 | 18.30430 | 160.86804 | 39905 ft | 454 kts | 309° |
| 2026-04-21 05:25 | 18.34518 | 160.81741 | 39905 ft | 454 kts | 309° |
| 2026-04-21 05:26 | 18.38633 | 160.76639 | 39904 ft | 454 kts | 309° |
| 2026-04-21 05:26 | 18.42719 | 160.71568 | 39904 ft | 454 kts | 309° |
| 2026-04-21 05:27 | 18.46835 | 160.66458 | 39904 ft | 455 kts | 309° |
| 2026-04-21 05:27 | 18.50907 | 160.61398 | 39905 ft | 454 kts | 309° |
| 2026-04-21 05:28 | 18.54996 | 160.56314 | 39904 ft | 454 kts | 309° |
| 2026-04-21 05:28 | 18.59081 | 160.51230 | 39905 ft | 454 kts | 309° |
| 2026-04-21 05:29 | 18.63185 | 160.46118 | 39904 ft | 454 kts | 309° |
| 2026-04-21 05:29 | 18.67259 | 160.41040 | 39904 ft | 454 kts | 309° |
| 2026-04-21 05:30 | 18.71351 | 160.35933 | 39905 ft | 454 kts | 309° |
| 2026-04-21 05:30 | 18.75415 | 160.30858 | 39905 ft | 454 kts | 309° |
| 2026-04-21 05:31 | 18.79502 | 160.25749 | 39905 ft | 454 kts | 309° |
| 2026-04-21 05:31 | 18.83568 | 160.20665 | 39904 ft | 454 kts | 309° |
| 2026-04-21 05:32 | 18.87660 | 160.15541 | 39904 ft | 454 kts | 309° |
| 2026-04-21 05:32 | 18.91733 | 160.10439 | 39904 ft | 453 kts | 309° |
| 2026-04-21 05:33 | 18.95795 | 160.05345 | 39904 ft | 453 kts | 309° |
| 2026-04-21 05:33 | 18.99891 | 160.00297 | 39904 ft | 454 kts | 311° |
| 2026-04-21 05:34 | 19.04376 | 159.95636 | 39904 ft | 454 kts | 316° |
| 2026-04-21 05:34 | 19.09098 | 159.91165 | 39904 ft | 454 kts | 317° |
| 2026-04-21 05:35 | 19.13854 | 159.86716 | 39904 ft | 454 kts | 317° |
| 2026-04-21 05:35 | 19.18559 | 159.82278 | 39905 ft | 454 kts | 317° |
| 2026-04-21 05:36 | 19.23263 | 159.77808 | 39905 ft | 454 kts | 317° |
| 2026-04-21 05:36 | 19.27957 | 159.73322 | 39904 ft | 454 kts | 317° |
| 2026-04-21 05:37 | 19.32624 | 159.68852 | 39905 ft | 454 kts | 317° |
| 2026-04-21 05:37 | 19.37310 | 159.64355 | 39905 ft | 454 kts | 317° |
| 2026-04-21 05:38 | 19.42006 | 159.59845 | 39905 ft | 454 kts | 317° |
| 2026-04-21 05:38 | 19.46684 | 159.55350 | 39905 ft | 454 kts | 317° |
| 2026-04-21 05:39 | 19.51372 | 159.50841 | 39905 ft | 454 kts | 317° |
| 2026-04-21 05:39 | 19.56029 | 159.46358 | 39905 ft | 454 kts | 317° |
| 2026-04-21 05:40 | 19.60699 | 159.41856 | 39905 ft | 454 kts | 317° |
| 2026-04-21 05:40 | 19.65398 | 159.37324 | 39905 ft | 453 kts | 316° |
| 2026-04-21 05:41 | 19.70085 | 159.32802 | 39905 ft | 453 kts | 316° |
| 2026-04-21 05:41 | 19.74746 | 159.28299 | 39905 ft | 453 kts | 316° |
| 2026-04-21 05:42 | 19.79399 | 159.23802 | 39905 ft | 452 kts | 316° |
| 2026-04-21 05:42 | 19.84056 | 159.19296 | 39905 ft | 452 kts | 316° |
| 2026-04-21 05:43 | 19.88726 | 159.14774 | 39906 ft | 453 kts | 316° |
| 2026-04-21 05:43 | 19.93364 | 159.10280 | 39905 ft | 453 kts | 316° |
| 2026-04-21 05:44 | 19.98033 | 159.05751 | 39905 ft | 453 kts | 316° |
| 2026-04-21 05:44 | 20.02688 | 159.01233 | 39905 ft | 453 kts | 316° |
| 2026-04-21 05:45 | 20.07352 | 158.96701 | 39907 ft | 453 kts | 316° |
| 2026-04-21 05:45 | 20.12011 | 158.92171 | 39909 ft | 453 kts | 316° |
| 2026-04-21 05:46 | 20.16689 | 158.87617 | 39908 ft | 453 kts | 316° |
| 2026-04-21 05:46 | 20.21312 | 158.83115 | 39913 ft | 453 kts | 316° |
| 2026-04-21 05:47 | 20.25982 | 158.78561 | 39912 ft | 453 kts | 316° |
| 2026-04-21 05:47 | 20.30615 | 158.74042 | 39915 ft | 453 kts | 316° |
| 2026-04-21 05:48 | 20.35279 | 158.69487 | 39915 ft | 453 kts | 316° |
| 2026-04-21 05:48 | 20.39922 | 158.64949 | 39917 ft | 453 kts | 316° |
| 2026-04-21 05:49 | 20.44566 | 158.60406 | 39918 ft | 453 kts | 316° |
| 2026-04-21 05:49 | 20.49231 | 158.55839 | 39920 ft | 453 kts | 316° |
| 2026-04-21 05:50 | 20.53860 | 158.51303 | 39920 ft | 453 kts | 316° |
| 2026-04-21 05:50 | 20.58529 | 158.46724 | 39921 ft | 453 kts | 316° |
| 2026-04-21 05:51 | 20.63168 | 158.42171 | 39922 ft | 453 kts | 316° |
| 2026-04-21 05:51 | 20.67812 | 158.37610 | 39922 ft | 453 kts | 316° |
| 2026-04-21 05:52 | 20.72434 | 158.33064 | 39923 ft | 453 kts | 315° |
| 2026-04-21 05:52 | 20.77091 | 158.28482 | 39923 ft | 453 kts | 315° |
| 2026-04-21 05:53 | 20.81711 | 158.23932 | 39924 ft | 453 kts | 315° |
| 2026-04-21 05:53 | 20.86364 | 158.19345 | 39925 ft | 453 kts | 315° |
| 2026-04-21 05:54 | 20.91020 | 158.14751 | 39925 ft | 453 kts | 315° |
| 2026-04-21 05:54 | 20.95669 | 158.10159 | 39925 ft | 453 kts | 315° |
| 2026-04-21 05:55 | 21.00306 | 158.05576 | 39925 ft | 453 kts | 315° |
| 2026-04-21 05:55 | 21.04940 | 158.00992 | 39925 ft | 453 kts | 315° |
| 2026-04-21 05:56 | 21.09538 | 157.96439 | 39925 ft | 453 kts | 315° |
| 2026-04-21 05:56 | 21.14152 | 157.91867 | 39925 ft | 453 kts | 315° |
| 2026-04-21 05:57 | 21.18799 | 157.87257 | 39925 ft | 452 kts | 315° |
| 2026-04-21 05:57 | 21.23417 | 157.82672 | 39926 ft | 452 kts | 315° |
| 2026-04-21 05:58 | 21.28021 | 157.78098 | 39925 ft | 452 kts | 315° |
| 2026-04-21 05:58 | 21.32634 | 157.73509 | 39923 ft | 451 kts | 315° |
| 2026-04-21 05:59 | 21.37256 | 157.68907 | 39925 ft | 451 kts | 315° |
| 2026-04-21 06:00 | 21.44157 | 157.62032 | 39924 ft | 451 kts | 315° |
| 2026-04-21 06:00 | 21.48735 | 157.57463 | 39925 ft | 451 kts | 315° |
| 2026-04-21 06:01 | 21.53354 | 157.52850 | 39925 ft | 451 kts | 315° |
| 2026-04-21 06:01 | 21.57936 | 157.48270 | 39925 ft | 450 kts | 315° |
| 2026-04-21 06:02 | 21.62536 | 157.43669 | 39925 ft | 451 kts | 315° |
| 2026-04-21 06:02 | 21.67100 | 157.39099 | 39924 ft | 450 kts | 315° |
| 2026-04-21 06:03 | 21.71690 | 157.34499 | 39923 ft | 450 kts | 314° |
| 2026-04-21 06:03 | 21.76265 | 157.29909 | 39924 ft | 450 kts | 314° |
| 2026-04-21 06:04 | 21.80858 | 157.25297 | 39922 ft | 450 kts | 314° |
| 2026-04-21 06:04 | 21.85440 | 157.20694 | 39926 ft | 450 kts | 314° |
| 2026-04-21 06:05 | 21.90025 | 157.16083 | 39923 ft | 450 kts | 314° |
| 2026-04-21 06:05 | 21.94613 | 157.11464 | 39923 ft | 450 kts | 314° |
| 2026-04-21 06:06 | 21.99183 | 157.06856 | 39925 ft | 450 kts | 314° |
| 2026-04-21 06:06 | 22.03752 | 157.02248 | 39923 ft | 450 kts | 314° |
| 2026-04-21 06:07 | 22.08351 | 156.97604 | 39926 ft | 450 kts | 314° |
| 2026-04-21 06:07 | 22.12911 | 156.92996 | 39930 ft | 450 kts | 314° |
| 2026-04-21 06:08 | 22.17469 | 156.88386 | 39928 ft | 450 kts | 314° |
| 2026-04-21 06:08 | 22.22047 | 156.83751 | 39931 ft | 450 kts | 314° |
| 2026-04-21 06:09 | 22.26604 | 156.79134 | 39930 ft | 450 kts | 314° |
| 2026-04-21 06:09 | 22.31176 | 156.74497 | 39935 ft | 450 kts | 314° |
| 2026-04-21 06:10 | 22.35766 | 156.69835 | 39936 ft | 450 kts | 314° |
| 2026-04-21 06:10 | 22.40317 | 156.65210 | 39940 ft | 451 kts | 314° |
| 2026-04-21 06:11 | 22.44899 | 156.60550 | 39938 ft | 450 kts | 314° |
| 2026-04-21 06:11 | 22.49445 | 156.55920 | 39939 ft | 450 kts | 314° |
| 2026-04-21 06:12 | 22.54025 | 156.51253 | 39939 ft | 450 kts | 314° |
| 2026-04-21 06:12 | 22.58563 | 156.46623 | 39939 ft | 450 kts | 313° |
| 2026-04-21 06:13 | 22.63136 | 156.41954 | 39942 ft | 450 kts | 314° |
| 2026-04-21 06:13 | 22.67702 | 156.37288 | 39941 ft | 450 kts | 313° |
| 2026-04-21 06:14 | 22.72254 | 156.32631 | 39942 ft | 450 kts | 313° |
| 2026-04-21 06:14 | 22.76789 | 156.27986 | 39942 ft | 449 kts | 313° |
| 2026-04-21 06:15 | 22.81313 | 156.23351 | 39946 ft | 450 kts | 313° |
| 2026-04-21 06:15 | 22.85856 | 156.18690 | 39943 ft | 449 kts | 313° |
| 2026-04-21 06:16 | 22.90393 | 156.14031 | 39945 ft | 449 kts | 313° |
| 2026-04-21 06:16 | 22.94945 | 156.09349 | 39946 ft | 449 kts | 313° |
| 2026-04-21 06:17 | 22.99469 | 156.04694 | 39945 ft | 448 kts | 313° |
| 2026-04-21 06:17 | 23.03983 | 156.00044 | 39946 ft | 449 kts | 313° |
| 2026-04-21 06:18 | 23.08520 | 155.95367 | 39946 ft | 448 kts | 313° |
| 2026-04-21 06:18 | 23.13034 | 155.90710 | 39949 ft | 447 kts | 313° |
| 2026-04-21 06:19 | 23.17536 | 155.86060 | 39949 ft | 448 kts | 313° |
| 2026-04-21 06:19 | 23.22050 | 155.81392 | 39950 ft | 446 kts | 313° |
| 2026-04-21 06:20 | 23.26520 | 155.76767 | 39952 ft | 446 kts | 313° |
| 2026-04-21 06:20 | 23.31031 | 155.72093 | 39954 ft | 445 kts | 313° |
| 2026-04-21 06:21 | 23.35547 | 155.67409 | 39954 ft | 445 kts | 313° |
| 2026-04-21 06:21 | 23.40003 | 155.62782 | 39953 ft | 445 kts | 313° |
| 2026-04-21 06:22 | 23.44501 | 155.58110 | 39955 ft | 444 kts | 313° |
| 2026-04-21 06:22 | 23.48997 | 155.53435 | 39959 ft | 444 kts | 312° |
| 2026-04-21 06:23 | 23.53447 | 155.48801 | 39957 ft | 444 kts | 312° |
| 2026-04-21 06:23 | 23.57925 | 155.44133 | 39959 ft | 443 kts | 312° |
| 2026-04-21 06:24 | 23.62375 | 155.39491 | 39960 ft | 443 kts | 312° |
| 2026-04-21 06:24 | 23.66804 | 155.34866 | 39960 ft | 443 kts | 312° |
| 2026-04-21 06:25 | 23.71284 | 155.30185 | 39961 ft | 442 kts | 312° |
| 2026-04-21 06:25 | 23.75724 | 155.25540 | 39962 ft | 441 kts | 312° |
| 2026-04-21 06:26 | 23.80164 | 155.20889 | 39961 ft | 441 kts | 312° |
| 2026-04-21 06:26 | 23.84592 | 155.16246 | 39963 ft | 441 kts | 311° |
| 2026-04-21 06:27 | 23.89020 | 155.11601 | 39962 ft | 441 kts | 311° |
| 2026-04-21 06:27 | 23.93441 | 155.06957 | 39966 ft | 441 kts | 311° |
| 2026-04-21 06:28 | 23.97862 | 155.02289 | 39965 ft | 439 kts | 310° |
| 2026-04-21 06:28 | 24.01813 | 154.97208 | 39965 ft | 435 kts | 302° |
| 2026-04-21 06:29 | 24.05278 | 154.91859 | 39970 ft | 433 kts | 300° |
| 2026-04-21 06:29 | 24.08681 | 154.86408 | 39967 ft | 434 kts | 300° |
| 2026-04-21 06:30 | 24.12068 | 154.80977 | 39968 ft | 433 kts | 300° |
| 2026-04-21 06:30 | 24.15473 | 154.75536 | 39969 ft | 433 kts | 300° |
| 2026-04-21 06:31 | 24.18881 | 154.70102 | 39971 ft | 432 kts | 300° |
| 2026-04-21 06:31 | 24.22282 | 154.64679 | 39971 ft | 432 kts | 300° |
| 2026-04-21 06:32 | 24.25694 | 154.59236 | 39969 ft | 432 kts | 300° |
| 2026-04-21 06:32 | 24.29090 | 154.53815 | 39971 ft | 431 kts | 300° |
| 2026-04-21 06:33 | 24.32483 | 154.48392 | 39972 ft | 431 kts | 300° |
| 2026-04-21 06:33 | 24.35860 | 154.42986 | 39974 ft | 432 kts | 300° |
| 2026-04-21 06:34 | 24.39256 | 154.37546 | 39974 ft | 431 kts | 300° |
| 2026-04-21 06:34 | 24.42635 | 154.32127 | 39976 ft | 430 kts | 300° |
| 2026-04-21 06:35 | 24.46006 | 154.26717 | 39975 ft | 430 kts | 300° |
| 2026-04-21 06:35 | 24.49375 | 154.21300 | 39973 ft | 430 kts | 300° |
| 2026-04-21 06:36 | 24.52740 | 154.15883 | 39975 ft | 429 kts | 300° |
| 2026-04-21 06:36 | 24.56105 | 154.10463 | 39979 ft | 430 kts | 300° |
| 2026-04-21 06:37 | 24.59485 | 154.05014 | 39977 ft | 430 kts | 300° |
| 2026-04-21 06:37 | 24.62840 | 153.99599 | 39979 ft | 430 kts | 300° |
| 2026-04-21 06:38 | 24.66217 | 153.94141 | 39979 ft | 429 kts | 299° |
| 2026-04-21 06:38 | 24.69578 | 153.88701 | 39981 ft | 430 kts | 299° |
| 2026-04-21 06:39 | 24.72942 | 153.83250 | 39982 ft | 429 kts | 299° |
| 2026-04-21 06:39 | 24.76284 | 153.77830 | 39984 ft | 430 kts | 299° |
| 2026-04-21 06:40 | 24.79627 | 153.72404 | 39983 ft | 428 kts | 299° |
| 2026-04-21 06:40 | 24.82980 | 153.66954 | 39982 ft | 429 kts | 299° |
| 2026-04-21 06:41 | 24.86333 | 153.61499 | 39986 ft | 428 kts | 299° |
| 2026-04-21 06:41 | 24.89664 | 153.56073 | 39987 ft | 428 kts | 299° |
| 2026-04-21 06:42 | 24.92991 | 153.50645 | 39986 ft | 429 kts | 299° |
| 2026-04-21 06:42 | 24.96323 | 153.45207 | 39987 ft | 428 kts | 299° |
| 2026-04-21 06:43 | 24.99666 | 153.39743 | 39987 ft | 429 kts | 299° |
| 2026-04-21 06:43 | 25.02986 | 153.34309 | 39989 ft | 428 kts | 298° |
| 2026-04-21 06:44 | 25.06319 | 153.28851 | 39989 ft | 428 kts | 298° |
| 2026-04-21 06:44 | 25.09630 | 153.23422 | 39990 ft | 426 kts | 298° |
| 2026-04-21 06:45 | 25.12927 | 153.18005 | 39990 ft | 427 kts | 298° |
| 2026-04-21 06:45 | 25.16257 | 153.12530 | 39989 ft | 427 kts | 298° |
| 2026-04-21 06:46 | 25.19563 | 153.07091 | 39992 ft | 426 kts | 298° |
| 2026-04-21 06:46 | 25.22841 | 153.01688 | 39991 ft | 426 kts | 298° |
| 2026-04-21 06:47 | 25.26145 | 152.96239 | 39994 ft | 425 kts | 298° |
| 2026-04-21 06:47 | 25.29429 | 152.90817 | 39994 ft | 425 kts | 298° |
| 2026-04-21 06:48 | 25.32704 | 152.85402 | 39993 ft | 425 kts | 298° |
| 2026-04-21 06:48 | 25.35982 | 152.79977 | 39992 ft | 424 kts | 298° |
| 2026-04-21 06:49 | 25.39264 | 152.74539 | 39995 ft | 424 kts | 298° |
| 2026-04-21 06:49 | 25.42526 | 152.69128 | 39995 ft | 423 kts | 298° |
| 2026-04-21 06:50 | 25.45790 | 152.63704 | 39997 ft | 422 kts | 298° |
| 2026-04-21 06:50 | 25.49041 | 152.58298 | 39998 ft | 422 kts | 298° |
| 2026-04-21 06:51 | 25.52306 | 152.52864 | 39995 ft | 421 kts | 298° |
| 2026-04-21 06:51 | 25.55536 | 152.47482 | 40000 ft | 421 kts | 297° |
| 2026-04-21 06:52 | 25.58776 | 152.42075 | 39999 ft | 420 kts | 298° |
| 2026-04-21 06:52 | 25.61994 | 152.36699 | 39999 ft | 421 kts | 297° |
| 2026-04-21 06:53 | 25.65233 | 152.31284 | 39999 ft | 419 kts | 297° |
| 2026-04-21 06:53 | 25.68451 | 152.25896 | 40000 ft | 419 kts | 297° |
| 2026-04-21 06:54 | 25.71664 | 152.20509 | 39999 ft | 419 kts | 297° |
| 2026-04-21 06:54 | 25.74861 | 152.15147 | 40001 ft | 418 kts | 297° |
| 2026-04-21 06:55 | 25.78063 | 152.09767 | 40004 ft | 418 kts | 297° |
| 2026-04-21 06:55 | 25.81236 | 152.04430 | 40003 ft | 416 kts | 297° |
| 2026-04-21 06:56 | 25.84431 | 151.99048 | 40002 ft | 416 kts | 297° |
| 2026-04-21 06:56 | 25.87611 | 151.93686 | 40006 ft | 416 kts | 297° |
| 2026-04-21 06:57 | 25.90767 | 151.88359 | 40004 ft | 415 kts | 297° |
| 2026-04-21 06:57 | 25.93948 | 151.82982 | 40007 ft | 415 kts | 297° |
| 2026-04-21 06:58 | 25.97117 | 151.77622 | 40006 ft | 414 kts | 297° |
| 2026-04-21 06:58 | 26.00279 | 151.72266 | 40003 ft | 416 kts | 296° |
| 2026-04-21 06:59 | 26.03446 | 151.66898 | 40007 ft | 413 kts | 296° |
| 2026-04-21 06:59 | 26.06597 | 151.61549 | 40007 ft | 414 kts | 296° |
| 2026-04-21 07:00 | 26.09747 | 151.56192 | 40007 ft | 412 kts | 296° |
| 2026-04-21 07:00 | 26.12881 | 151.50861 | 40009 ft | 413 kts | 296° |
| 2026-04-21 07:01 | 26.16019 | 151.45509 | 40006 ft | 414 kts | 296° |
| 2026-04-21 07:01 | 26.20728 | 151.37476 | 40005 ft | 412 kts | 296° |
| 2026-04-21 07:02 | 26.23840 | 151.32158 | 40004 ft | 411 kts | 296° |
| 2026-04-21 07:02 | 26.26955 | 151.26836 | 40005 ft | 411 kts | 296° |
| 2026-04-21 07:03 | 26.30075 | 151.21498 | 40007 ft | 411 kts | 296° |
| 2026-04-21 07:03 | 26.33191 | 151.16157 | 40008 ft | 410 kts | 295° |
| 2026-04-21 07:04 | 26.36299 | 151.10820 | 40007 ft | 409 kts | 295° |
| 2026-04-21 07:04 | 26.39406 | 151.05479 | 40002 ft | 410 kts | 296° |
| 2026-04-21 07:05 | 26.42492 | 151.00172 | 40007 ft | 408 kts | 295° |
| 2026-04-21 07:05 | 26.45582 | 150.94847 | 40009 ft | 407 kts | 296° |
| 2026-04-21 07:06 | 26.48636 | 150.89578 | 40005 ft | 407 kts | 295° |
| 2026-04-21 07:06 | 26.51729 | 150.84232 | 40002 ft | 409 kts | 296° |
| 2026-04-21 07:07 | 26.54803 | 150.78920 | 40004 ft | 406 kts | 295° |
| 2026-04-21 07:07 | 26.57864 | 150.73624 | 40000 ft | 407 kts | 295° |
| 2026-04-21 07:08 | 26.60929 | 150.68309 | 40003 ft | 407 kts | 295° |
| 2026-04-21 07:08 | 26.63995 | 150.62990 | 40001 ft | 406 kts | 295° |
| 2026-04-21 07:09 | 26.67045 | 150.57690 | 39996 ft | 406 kts | 295° |
| 2026-04-21 07:09 | 26.70099 | 150.52383 | 39999 ft | 406 kts | 295° |
| 2026-04-21 07:10 | 26.73151 | 150.47066 | 39998 ft | 408 kts | 295° |
| 2026-04-21 07:10 | 26.76217 | 150.41727 | 39995 ft | 404 kts | 295° |
| 2026-04-21 07:11 | 26.79257 | 150.36424 | 39995 ft | 407 kts | 296° |
| 2026-04-21 07:11 | 26.82293 | 150.31119 | 39996 ft | 405 kts | 295° |
| 2026-04-21 07:12 | 26.85333 | 150.25800 | 39994 ft | 405 kts | 295° |
| 2026-04-21 07:12 | 26.88349 | 150.20517 | 39991 ft | 404 kts | 295° |
| 2026-04-21 07:13 | 26.91380 | 150.15204 | 39992 ft | 404 kts | 295° |
| 2026-04-21 07:13 | 26.94408 | 150.09882 | 39988 ft | 406 kts | 295° |
| 2026-04-21 07:14 | 26.97443 | 150.04578 | 39988 ft | 402 kts | 296° |
| 2026-04-21 07:14 | 27.00940 | 149.99594 | 39989 ft | 416 kts | 308° |
| 2026-04-21 07:15 | 27.05564 | 149.95503 | 39991 ft | 426 kts | 316° |
| 2026-04-21 07:15 | 27.10508 | 149.91788 | 39990 ft | 428 kts | 317° |
| 2026-04-21 07:16 | 27.15474 | 149.88112 | 39999 ft | 428 kts | 317° |
| 2026-04-21 07:16 | 27.20432 | 149.84389 | 39990 ft | 426 kts | 317° |
| 2026-04-21 07:17 | 27.25386 | 149.80623 | 39991 ft | 429 kts | 316° |
| 2026-04-21 07:17 | 27.30315 | 149.76851 | 39994 ft | 427 kts | 317° |
| 2026-04-21 07:18 | 27.35188 | 149.73123 | 40001 ft | 424 kts | 317° |
| 2026-04-21 07:18 | 27.40082 | 149.69362 | 39999 ft | 425 kts | 317° |
| 2026-04-21 07:19 | 27.44971 | 149.65596 | 39991 ft | 426 kts | 317° |
| 2026-04-21 07:19 | 27.49848 | 149.61841 | 40005 ft | 427 kts | 317° |
| 2026-04-21 07:20 | 27.54750 | 149.58060 | 39993 ft | 426 kts | 317° |
| 2026-04-21 07:20 | 27.59619 | 149.54301 | 40006 ft | 424 kts | 317° |
| 2026-04-21 07:21 | 27.64471 | 149.50555 | 39998 ft | 423 kts | 317° |
| 2026-04-21 07:21 | 27.69338 | 149.46788 | 40004 ft | 426 kts | 317° |
| 2026-04-21 07:22 | 27.74174 | 149.43043 | 39996 ft | 422 kts | 317° |
| 2026-04-21 07:22 | 27.79038 | 149.39270 | 39998 ft | 423 kts | 317° |
| 2026-04-21 07:23 | 27.83876 | 149.35513 | 40002 ft | 424 kts | 317° |
| 2026-04-21 07:23 | 27.88715 | 149.31757 | 40005 ft | 420 kts | 317° |
| 2026-04-21 07:24 | 27.93528 | 149.28015 | 39996 ft | 420 kts | 317° |
| 2026-04-21 07:24 | 27.98334 | 149.24263 | 39997 ft | 423 kts | 317° |
| 2026-04-21 07:25 | 28.03192 | 149.20479 | 39997 ft | 421 kts | 318° |
| 2026-04-21 07:25 | 28.07992 | 149.16739 | 39993 ft | 420 kts | 317° |
| 2026-04-21 07:26 | 28.12824 | 149.12962 | 40002 ft | 419 kts | 317° |
| 2026-04-21 07:26 | 28.17595 | 149.09235 | 39999 ft | 419 kts | 318° |
| 2026-04-21 07:27 | 28.22408 | 149.05463 | 39999 ft | 420 kts | 318° |
| 2026-04-21 07:27 | 28.27215 | 149.01700 | 39998 ft | 416 kts | 317° |
| 2026-04-21 07:28 | 28.31972 | 148.97961 | 40000 ft | 420 kts | 318° |
| 2026-04-21 07:28 | 28.36784 | 148.94173 | 40000 ft | 420 kts | 318° |
| 2026-04-21 07:29 | 28.41566 | 148.90416 | 40002 ft | 419 kts | 318° |
| 2026-04-21 07:29 | 28.46344 | 148.86661 | 40000 ft | 415 kts | 319° |
| 2026-04-21 07:30 | 28.51079 | 148.82930 | 39994 ft | 417 kts | 318° |
| 2026-04-21 07:30 | 28.55850 | 148.79163 | 39999 ft | 414 kts | 318° |
| 2026-04-21 07:31 | 28.60586 | 148.75420 | 40004 ft | 417 kts | 318° |
| 2026-04-21 07:31 | 28.65337 | 148.71663 | 40004 ft | 414 kts | 318° |
| 2026-04-21 07:32 | 28.70053 | 148.67929 | 39999 ft | 414 kts | 318° |
| 2026-04-21 07:32 | 28.74804 | 148.64156 | 40001 ft | 415 kts | 319° |
| 2026-04-21 07:33 | 28.79542 | 148.60396 | 39999 ft | 416 kts | 318° |
| 2026-04-21 07:33 | 28.84291 | 148.56625 | 40000 ft | 411 kts | 318° |
| 2026-04-21 07:34 | 28.88999 | 148.52878 | 40000 ft | 413 kts | 318° |
| 2026-04-21 07:34 | 28.93705 | 148.49130 | 39998 ft | 415 kts | 319° |
| 2026-04-21 07:35 | 28.98463 | 148.45337 | 40000 ft | 414 kts | 319° |
| 2026-04-21 07:35 | 29.03159 | 148.41594 | 40004 ft | 414 kts | 318° |
| 2026-04-21 07:36 | 29.07868 | 148.37828 | 39996 ft | 411 kts | 319° |
| 2026-04-21 07:36 | 29.12604 | 148.34036 | 40000 ft | 416 kts | 318° |
| 2026-04-21 07:37 | 29.17320 | 148.30266 | 40000 ft | 412 kts | 318° |
| 2026-04-21 07:37 | 29.22049 | 148.26472 | 39995 ft | 415 kts | 318° |
| 2026-04-21 07:38 | 29.26749 | 148.22697 | 39995 ft | 414 kts | 318° |
| 2026-04-21 07:38 | 29.31472 | 148.18903 | 39995 ft | 414 kts | 318° |
| 2026-04-21 07:39 | 29.36208 | 148.15091 | 40001 ft | 416 kts | 319° |
| 2026-04-21 07:39 | 29.40950 | 148.11275 | 39991 ft | 415 kts | 318° |
| 2026-04-21 07:40 | 29.45650 | 148.07484 | 39994 ft | 417 kts | 319° |
| 2026-04-21 07:40 | 29.50429 | 148.03622 | 39991 ft | 417 kts | 319° |
| 2026-04-21 07:41 | 29.55173 | 147.99786 | 39988 ft | 419 kts | 318° |
| 2026-04-21 07:41 | 29.59913 | 147.95947 | 39995 ft | 416 kts | 319° |
| 2026-04-21 07:42 | 29.64702 | 147.92067 | 39991 ft | 420 kts | 319° |
| 2026-04-21 07:42 | 29.69451 | 147.88219 | 39990 ft | 419 kts | 319° |
| 2026-04-21 07:43 | 29.74213 | 147.84355 | 39990 ft | 419 kts | 319° |
| 2026-04-21 07:43 | 29.79008 | 147.80461 | 39991 ft | 419 kts | 319° |
| 2026-04-21 07:44 | 29.83763 | 147.76596 | 39987 ft | 418 kts | 319° |
| 2026-04-21 07:44 | 29.88489 | 147.72745 | 39990 ft | 419 kts | 320° |
| 2026-04-21 07:45 | 29.93247 | 147.68861 | 39987 ft | 420 kts | 319° |
| 2026-04-21 07:45 | 29.97998 | 147.64983 | 39991 ft | 418 kts | 319° |
| 2026-04-21 07:46 | 30.02793 | 147.61076 | 39989 ft | 422 kts | 320° |
| 2026-04-21 07:46 | 30.07587 | 147.57251 | 39989 ft | 420 kts | 320° |
| 2026-04-21 07:47 | 30.12393 | 147.53438 | 39990 ft | 420 kts | 320° |
| 2026-04-21 07:47 | 30.17205 | 147.49605 | 39990 ft | 418 kts | 320° |
| 2026-04-21 07:48 | 30.22012 | 147.45767 | 39990 ft | 417 kts | 320° |
| 2026-04-21 07:48 | 30.26802 | 147.41931 | 39992 ft | 419 kts | 320° |
| 2026-04-21 07:49 | 30.31549 | 147.38126 | 39991 ft | 418 kts | 320° |
| 2026-04-21 07:49 | 30.36350 | 147.34271 | 39991 ft | 418 kts | 320° |
| 2026-04-21 07:50 | 30.41112 | 147.30444 | 39990 ft | 416 kts | 320° |
| 2026-04-21 07:50 | 30.45863 | 147.26621 | 39992 ft | 417 kts | 320° |
| 2026-04-21 07:51 | 30.50636 | 147.22777 | 39993 ft | 416 kts | 320° |
| 2026-04-21 07:51 | 30.55369 | 147.18957 | 39991 ft | 414 kts | 320° |
| 2026-04-21 07:52 | 30.60099 | 147.15138 | 39991 ft | 413 kts | 320° |
| 2026-04-21 07:52 | 30.64808 | 147.11334 | 39989 ft | 413 kts | 320° |
| 2026-04-21 07:53 | 30.69526 | 147.07513 | 39994 ft | 411 kts | 320° |
| 2026-04-21 07:53 | 30.74239 | 147.03693 | 39993 ft | 413 kts | 320° |
| 2026-04-21 07:54 | 30.78918 | 146.99896 | 39995 ft | 411 kts | 320° |
| 2026-04-21 07:54 | 30.83601 | 146.96089 | 39993 ft | 410 kts | 320° |
| 2026-04-21 07:55 | 30.88295 | 146.92270 | 39994 ft | 410 kts | 321° |
| 2026-04-21 07:55 | 30.92967 | 146.88467 | 39987 ft | 410 kts | 321° |
| 2026-04-21 07:56 | 30.97608 | 146.84682 | 39989 ft | 409 kts | 321° |
| 2026-04-21 07:56 | 31.02289 | 146.80861 | 39990 ft | 409 kts | 321° |
| 2026-04-21 07:57 | 31.06915 | 146.77080 | 39988 ft | 405 kts | 321° |
| 2026-04-21 07:57 | 31.11555 | 146.73279 | 40003 ft | 408 kts | 321° |
| 2026-04-21 07:58 | 31.16165 | 146.69504 | 39996 ft | 405 kts | 321° |
| 2026-04-21 07:58 | 31.20754 | 146.65739 | 39990 ft | 404 kts | 321° |
| 2026-04-21 07:59 | 31.25344 | 146.61968 | 40001 ft | 403 kts | 321° |
| 2026-04-21 07:59 | 31.29947 | 146.58182 | 39993 ft | 401 kts | 321° |
| 2026-04-21 08:00 | 31.34502 | 146.54436 | 40006 ft | 400 kts | 321° |
| 2026-04-21 08:00 | 31.39050 | 146.50687 | 39991 ft | 400 kts | 321° |
| 2026-04-21 08:01 | 31.43578 | 146.46950 | 40004 ft | 400 kts | 321° |
| 2026-04-21 08:02 | 31.50362 | 146.41344 | 39996 ft | 397 kts | 321° |
| 2026-04-21 08:02 | 31.54845 | 146.37631 | 39997 ft | 395 kts | 321° |
| 2026-04-21 08:03 | 31.59331 | 146.33911 | 40000 ft | 395 kts | 321° |
| 2026-04-21 08:03 | 31.63830 | 146.30177 | 40007 ft | 395 kts | 320° |
| 2026-04-21 08:04 | 31.68284 | 146.26477 | 39996 ft | 391 kts | 321° |
| 2026-04-21 08:04 | 31.72717 | 146.22790 | 40000 ft | 391 kts | 320° |
| 2026-04-21 08:05 | 31.77179 | 146.19069 | 39998 ft | 392 kts | 321° |
| 2026-04-21 08:05 | 31.81583 | 146.15398 | 39992 ft | 388 kts | 321° |
| 2026-04-21 08:06 | 31.86009 | 146.11700 | 39991 ft | 391 kts | 320° |
| 2026-04-21 08:06 | 31.90419 | 146.08014 | 39993 ft | 389 kts | 321° |
| 2026-04-21 08:07 | 31.94816 | 146.04338 | 39998 ft | 385 kts | 320° |
| 2026-04-21 08:07 | 31.99053 | 146.00481 | 39994 ft | 383 kts | 313° |
| 2026-04-21 08:08 | 32.02432 | 145.95712 | 39991 ft | 379 kts | 302° |
| 2026-04-21 08:08 | 32.05215 | 145.90512 | 39994 ft | 377 kts | 300° |
| 2026-04-21 08:09 | 32.07941 | 145.85225 | 39989 ft | 379 kts | 300° |
| 2026-04-21 08:09 | 32.10694 | 145.79887 | 39987 ft | 379 kts | 300° |
| 2026-04-21 08:10 | 32.13422 | 145.74618 | 39993 ft | 378 kts | 300° |
| 2026-04-21 08:10 | 32.16151 | 145.69344 | 39984 ft | 377 kts | 300° |
| 2026-04-21 08:11 | 32.18898 | 145.64032 | 39990 ft | 379 kts | 300° |
| 2026-04-21 08:11 | 32.21637 | 145.58727 | 39982 ft | 378 kts | 300° |
| 2026-04-21 08:12 | 32.24366 | 145.53433 | 39987 ft | 380 kts | 300° |
| 2026-04-21 08:12 | 32.27114 | 145.48097 | 39984 ft | 378 kts | 300° |
| 2026-04-21 08:13 | 32.29834 | 145.42813 | 39982 ft | 378 kts | 300° |
| 2026-04-21 08:13 | 32.32567 | 145.37492 | 39992 ft | 378 kts | 300° |
| 2026-04-21 08:14 | 32.35273 | 145.32216 | 39982 ft | 379 kts | 299° |
| 2026-04-21 08:14 | 32.37993 | 145.26900 | 39979 ft | 380 kts | 299° |
| 2026-04-21 08:15 | 32.40723 | 145.21564 | 39981 ft | 378 kts | 299° |
| 2026-04-21 08:15 | 32.43433 | 145.16260 | 39986 ft | 379 kts | 299° |
| 2026-04-21 08:16 | 32.46160 | 145.10906 | 39980 ft | 379 kts | 299° |
| 2026-04-21 08:16 | 32.48883 | 145.05562 | 39976 ft | 378 kts | 299° |
| 2026-04-21 08:17 | 32.51582 | 145.00258 | 39980 ft | 379 kts | 298° |
| 2026-04-21 08:17 | 32.54326 | 144.94855 | 39977 ft | 380 kts | 298° |
| 2026-04-21 08:18 | 32.57018 | 144.89542 | 39977 ft | 378 kts | 298° |
| 2026-04-21 08:18 | 32.59728 | 144.84190 | 39975 ft | 380 kts | 298° |
| 2026-04-21 08:19 | 32.62454 | 144.78798 | 39975 ft | 380 kts | 298° |
| 2026-04-21 08:19 | 32.65146 | 144.73457 | 39977 ft | 381 kts | 298° |
| 2026-04-21 08:20 | 32.67867 | 144.68060 | 39978 ft | 380 kts | 298° |
| 2026-04-21 08:20 | 32.70573 | 144.62686 | 39976 ft | 379 kts | 297° |
| 2026-04-21 08:21 | 32.73282 | 144.57297 | 39971 ft | 381 kts | 298° |
| 2026-04-21 08:21 | 32.75994 | 144.51895 | 39971 ft | 380 kts | 298° |
| 2026-04-21 08:22 | 32.78710 | 144.46477 | 39968 ft | 381 kts | 297° |
| 2026-04-21 08:22 | 32.81417 | 144.41064 | 39972 ft | 383 kts | 298° |
| 2026-04-21 08:23 | 32.84130 | 144.35638 | 39967 ft | 381 kts | 297° |
| 2026-04-21 08:23 | 32.86822 | 144.30240 | 39970 ft | 382 kts | 297° |
| 2026-04-21 08:24 | 32.89532 | 144.24797 | 39965 ft | 382 kts | 297° |
| 2026-04-21 08:24 | 32.92252 | 144.19334 | 39965 ft | 383 kts | 296° |
| 2026-04-21 08:25 | 32.94948 | 144.13911 | 39970 ft | 383 kts | 297° |
| 2026-04-21 08:25 | 32.97648 | 144.08473 | 39968 ft | 384 kts | 296° |
| 2026-04-21 08:26 | 33.00366 | 144.02983 | 39970 ft | 385 kts | 296° |
| 2026-04-21 08:26 | 33.03075 | 143.97504 | 39965 ft | 384 kts | 296° |
| 2026-04-21 08:27 | 33.05776 | 143.92035 | 39960 ft | 381 kts | 296° |
| 2026-04-21 08:27 | 33.08475 | 143.86559 | 39955 ft | 383 kts | 296° |
| 2026-04-21 08:28 | 33.11170 | 143.81081 | 39956 ft | 383 kts | 296° |
| 2026-04-21 08:28 | 33.13860 | 143.75613 | 39956 ft | 380 kts | 296° |
| 2026-04-21 08:29 | 33.16506 | 143.70224 | 39953 ft | 381 kts | 296° |
| 2026-04-21 08:29 | 33.19172 | 143.64784 | 39950 ft | 379 kts | 297° |
| 2026-04-21 08:30 | 33.21822 | 143.59369 | 39949 ft | 378 kts | 296° |
| 2026-04-21 08:30 | 33.24469 | 143.53950 | 39946 ft | 378 kts | 296° |
| 2026-04-21 08:31 | 33.27115 | 143.48528 | 39945 ft | 376 kts | 297° |
| 2026-04-21 08:31 | 33.29750 | 143.43120 | 39941 ft | 377 kts | 296° |
| 2026-04-21 08:32 | 33.32367 | 143.37738 | 39944 ft | 377 kts | 296° |
| 2026-04-21 08:32 | 33.34987 | 143.32342 | 39943 ft | 375 kts | 296° |
| 2026-04-21 08:33 | 33.37611 | 143.26933 | 39939 ft | 376 kts | 296° |
| 2026-04-21 08:33 | 33.40214 | 143.21559 | 39937 ft | 374 kts | 296° |
| 2026-04-21 08:34 | 33.42800 | 143.16205 | 39937 ft | 374 kts | 296° |
| 2026-04-21 08:34 | 33.45412 | 143.10785 | 39931 ft | 374 kts | 296° |
| 2026-04-21 08:35 | 33.47998 | 143.05417 | 39924 ft | 372 kts | 296° |
| 2026-04-21 08:35 | 33.50568 | 143.00066 | 39921 ft | 371 kts | 296° |
| 2026-04-21 08:36 | 33.53128 | 142.94724 | 39931 ft | 373 kts | 296° |
| 2026-04-21 08:36 | 33.55701 | 142.89359 | 39922 ft | 370 kts | 296° |
| 2026-04-21 08:37 | 33.58262 | 142.84006 | 39922 ft | 370 kts | 296° |
| 2026-04-21 08:37 | 33.60840 | 142.78606 | 39919 ft | 370 kts | 296° |
| 2026-04-21 08:38 | 33.63384 | 142.73271 | 39914 ft | 369 kts | 296° |
| 2026-04-21 08:38 | 33.65937 | 142.67909 | 39914 ft | 370 kts | 296° |
| 2026-04-21 08:39 | 33.68483 | 142.62555 | 39912 ft | 369 kts | 296° |
| 2026-04-21 08:39 | 33.71003 | 142.57253 | 39910 ft | 368 kts | 296° |
| 2026-04-21 08:40 | 33.73544 | 142.51892 | 39907 ft | 370 kts | 295° |
| 2026-04-21 08:40 | 33.76073 | 142.46552 | 39907 ft | 368 kts | 296° |
| 2026-04-21 08:41 | 33.78590 | 142.41231 | 39905 ft | 368 kts | 295° |
| 2026-04-21 08:41 | 33.81345 | 142.36009 | 39901 ft | 373 kts | 304° |
| 2026-04-21 08:42 | 33.85406 | 142.31920 | 39903 ft | 388 kts | 318° |
| 2026-04-21 08:42 | 33.90065 | 142.28571 | 39902 ft | 390 kts | 321° |
| 2026-04-21 08:43 | 33.94765 | 142.25308 | 39889 ft | 391 kts | 321° |
| 2026-04-21 08:43 | 33.99488 | 142.21989 | 39893 ft | 392 kts | 320° |
| 2026-04-21 08:44 | 34.04159 | 142.18669 | 39889 ft | 390 kts | 320° |
| 2026-04-21 08:44 | 34.08825 | 142.15330 | 39888 ft | 392 kts | 320° |
| 2026-04-21 08:45 | 34.13480 | 142.11986 | 39889 ft | 391 kts | 320° |
| 2026-04-21 08:45 | 34.18156 | 142.08621 | 39881 ft | 392 kts | 320° |
| 2026-04-21 08:46 | 34.22845 | 142.05241 | 39878 ft | 393 kts | 320° |
| 2026-04-21 08:46 | 34.27536 | 142.01855 | 39873 ft | 393 kts | 319° |
| 2026-04-21 08:47 | 34.32217 | 141.98480 | 39875 ft | 392 kts | 320° |
| 2026-04-21 08:47 | 34.36904 | 141.95087 | 39870 ft | 394 kts | 320° |
| 2026-04-21 08:48 | 34.41589 | 141.91696 | 39873 ft | 392 kts | 319° |
| 2026-04-21 08:48 | 34.46278 | 141.88292 | 39864 ft | 396 kts | 319° |
| 2026-04-21 08:49 | 34.50998 | 141.84866 | 39862 ft | 394 kts | 319° |
| 2026-04-21 08:49 | 34.55682 | 141.81461 | 39865 ft | 393 kts | 319° |
| 2026-04-21 08:50 | 34.60377 | 141.77991 | 39860 ft | 393 kts | 316° |
| 2026-04-21 08:50 | 34.64393 | 141.73810 | 39856 ft | 375 kts | 303° |
| 2026-04-21 08:51 | 34.67318 | 141.68689 | 39860 ft | 365 kts | 294° |
| 2026-04-21 08:51 | 34.69184 | 141.63072 | 39853 ft | 357 kts | 281° |
| 2026-04-21 08:52 | 34.69882 | 141.57112 | 39856 ft | 355 kts | 273° |
| 2026-04-21 08:52 | 34.70027 | 141.51158 | 39851 ft | 354 kts | 271° |
| 2026-04-21 08:52 | 34.70058 | 141.48186 | 39447 ft | 357 kts | 270° |
| 2026-04-21 08:53 | 34.70089 | 141.45169 | 38474 ft | 359 kts | 270° |
| 2026-04-21 08:53 | 34.70117 | 141.42171 | 37568 ft | 359 kts | 270° |
| 2026-04-21 08:53 | 34.70128 | 141.39151 | 36539 ft | 362 kts | 269° |
| 2026-04-21 08:53 | 34.70128 | 141.36081 | 35292 ft | 369 kts | 269° |
| 2026-04-21 08:54 | 34.70125 | 141.32956 | 34063 ft | 376 kts | 268° |
| 2026-04-21 08:54 | 34.70123 | 141.30104 | 32952 ft | 383 kts | 268° |
| 2026-04-21 08:54 | 34.70123 | 141.26698 | 31742 ft | 389 kts | 268° |
| 2026-04-21 08:54 | 34.70122 | 141.23436 | 30692 ft | 392 kts | 268° |
| 2026-04-21 08:55 | 34.70121 | 141.20146 | 29555 ft | 396 kts | 268° |
| 2026-04-21 08:55 | 34.70121 | 141.16814 | 28358 ft | 402 kts | 267° |
| 2026-04-21 08:55 | 34.70121 | 141.13423 | 27321 ft | 401 kts | 268° |
| 2026-04-21 08:55 | 34.70121 | 141.10060 | 26583 ft | 395 kts | 268° |
| 2026-04-21 08:56 | 34.70122 | 141.06773 | 25804 ft | 390 kts | 268° |
| 2026-04-21 08:56 | 34.70122 | 141.03548 | 24947 ft | 387 kts | 269° |
| 2026-04-21 08:56 | 34.70120 | 141.00323 | 24176 ft | 382 kts | 268° |
| 2026-04-21 08:56 | 34.70117 | 140.97128 | 23388 ft | 378 kts | 269° |
| 2026-04-21 08:57 | 34.70112 | 140.93961 | 22603 ft | 374 kts | 269° |
| 2026-04-21 08:57 | 34.70106 | 140.90854 | 21783 ft | 371 kts | 269° |
| 2026-04-21 08:57 | 34.70101 | 140.87733 | 21050 ft | 366 kts | 269° |
| 2026-04-21 08:57 | 34.70095 | 140.84668 | 20304 ft | 361 kts | 269° |
| 2026-04-21 08:58 | 34.70087 | 140.81648 | 19420 ft | 361 kts | 269° |
| 2026-04-21 08:58 | 34.70078 | 140.78653 | 18681 ft | 356 kts | 269° |
| 2026-04-21 08:58 | 34.70070 | 140.75687 | 17945 ft | 352 kts | 269° |
| 2026-04-21 08:58 | 34.70061 | 140.72736 | 17140 ft | 350 kts | 269° |
| 2026-04-21 08:59 | 34.70052 | 140.69778 | 16334 ft | 348 kts | 269° |
| 2026-04-21 08:59 | 34.70041 | 140.66878 | 15529 ft | 347 kts | 268° |
| 2026-04-21 08:59 | 34.70028 | 140.63966 | 14738 ft | 344 kts | 268° |
| 2026-04-21 08:59 | 34.70016 | 140.61108 | 13980 ft | 342 kts | 268° |
| 2026-04-21 09:00 | 34.70003 | 140.58229 | 13166 ft | 340 kts | 268° |
| 2026-04-21 09:00 | 34.69991 | 140.55402 | 12543 ft | 333 kts | 268° |
| 2026-04-21 09:00 | 34.69980 | 140.52615 | 12199 ft | 319 kts | 269° |
| 2026-04-21 09:00 | 34.69971 | 140.50005 | 11874 ft | 307 kts | 269° |
| 2026-04-21 09:01 | 34.70280 | 140.47382 | 11623 ft | 330 kts | 286° |
| 2026-04-21 09:01 | 34.71519 | 140.44968 | 11383 ft | 346 kts | 307° |
| 2026-04-21 09:01 | 34.73266 | 140.42982 | 11139 ft | 350 kts | 314° |
| 2026-04-21 09:01 | 34.75187 | 140.41097 | 10892 ft | 351 kts | 316° |
| 2026-04-21 09:02 | 34.77062 | 140.39262 | 10648 ft | 347 kts | 315° |
| 2026-04-21 09:02 | 34.78915 | 140.37386 | 10403 ft | 346 kts | 314° |
| 2026-04-21 09:02 | 34.80735 | 140.35483 | 10161 ft | 345 kts | 314° |
| 2026-04-21 09:03 | 34.84253 | 140.31702 | 9670 ft | 325 kts | 313° |
| 2026-04-21 09:03 | 34.85908 | 140.29901 | 9423 ft | 310 kts | 313° |
| 2026-04-21 09:03 | 34.87489 | 140.28174 | 9175 ft | 298 kts | 312° |
| 2026-04-21 09:03 | 34.88998 | 140.26524 | 8930 ft | 286 kts | 312° |
| 2026-04-21 09:04 | 34.90457 | 140.24924 | 8682 ft | 276 kts | 312° |
| 2026-04-21 09:04 | 34.91837 | 140.23408 | 8440 ft | 267 kts | 312° |
| 2026-04-21 09:04 | 34.93202 | 140.21910 | 8192 ft | 259 kts | 312° |
| 2026-04-21 09:04 | 34.94523 | 140.20462 | 7972 ft | 251 kts | 312° |
| 2026-04-21 09:05 | 34.95805 | 140.19060 | 7949 ft | 248 kts | 312° |
| 2026-04-21 09:05 | 34.97112 | 140.17621 | 7947 ft | 251 kts | 312° |
| 2026-04-21 09:05 | 34.98388 | 140.16223 | 7947 ft | 249 kts | 312° |
| 2026-04-21 09:05 | 34.99690 | 140.14796 | 7945 ft | 251 kts | 312° |
| 2026-04-21 09:06 | 35.00995 | 140.13371 | 7947 ft | 252 kts | 313° |
| 2026-04-21 09:06 | 35.02292 | 140.11952 | 7944 ft | 252 kts | 312° |
| 2026-04-21 09:06 | 35.03588 | 140.10536 | 7942 ft | 250 kts | 313° |
| 2026-04-21 09:06 | 35.04884 | 140.09113 | 7942 ft | 251 kts | 312° |
| 2026-04-21 09:07 | 35.06181 | 140.07689 | 7943 ft | 249 kts | 312° |
| 2026-04-21 09:07 | 35.07481 | 140.06259 | 7944 ft | 251 kts | 313° |
| 2026-04-21 09:07 | 35.08764 | 140.04849 | 7943 ft | 252 kts | 312° |
| 2026-04-21 09:07 | 35.10071 | 140.03415 | 7942 ft | 252 kts | 313° |
| 2026-04-21 09:08 | 35.11377 | 140.01984 | 7937 ft | 249 kts | 312° |
| 2026-04-21 09:08 | 35.12655 | 140.00580 | 7946 ft | 248 kts | 312° |
| 2026-04-21 09:08 | 35.13967 | 139.99164 | 7947 ft | 252 kts | 315° |
| 2026-04-21 09:08 | 35.15470 | 139.98036 | 7934 ft | 261 kts | 334° |
| 2026-04-21 09:09 | 35.17261 | 139.97739 | 7832 ft | 263 kts | 354° |
| 2026-04-21 09:09 | 35.19080 | 139.97910 | 7639 ft | 258 kts | 358° |
| 2026-04-21 09:09 | 35.20835 | 139.98100 | 7461 ft | 249 kts | 357° |
| 2026-04-21 09:09 | 35.22522 | 139.98219 | 7347 ft | 239 kts | 355° |
| 2026-04-21 09:10 | 35.24157 | 139.98290 | 7193 ft | 230 kts | 354° |
| 2026-04-21 09:10 | 35.25713 | 139.98335 | 7024 ft | 223 kts | 353° |
| 2026-04-21 09:10 | 35.27253 | 139.98198 | 6638 ft | 218 kts | 344° |
| 2026-04-21 09:10 | 35.28686 | 139.97789 | 6277 ft | 211 kts | 338° |
| 2026-04-21 09:11 | 35.30052 | 139.97200 | 6022 ft | 199 kts | 330° |
| 2026-04-21 09:11 | 35.31222 | 139.96490 | 6000 ft | 179 kts | 325° |
| 2026-04-21 09:11 | 35.32262 | 139.95779 | 5992 ft | 164 kts | 323° |
| 2026-04-21 09:11 | 35.33235 | 139.95106 | 5989 ft | 154 kts | 324° |
| 2026-04-21 09:12 | 35.34167 | 139.94455 | 5986 ft | 155 kts | 323° |
| 2026-04-21 09:12 | 35.35081 | 139.93820 | 5980 ft | 153 kts | 324° |
| 2026-04-21 09:12 | 35.36008 | 139.93173 | 5986 ft | 152 kts | 323° |
| 2026-04-21 09:12 | 35.36933 | 139.92511 | 5941 ft | 155 kts | 323° |
| 2026-04-21 09:13 | 35.37866 | 139.91853 | 5711 ft | 154 kts | 324° |
| 2026-04-21 09:13 | 35.38794 | 139.91203 | 5433 ft | 154 kts | 324° |
| 2026-04-21 09:13 | 35.39715 | 139.90552 | 5141 ft | 154 kts | 325° |
| 2026-04-21 09:13 | 35.40656 | 139.89890 | 4829 ft | 155 kts | 326° |
| 2026-04-21 09:14 | 35.41592 | 139.89230 | 4511 ft | 156 kts | 327° |
| 2026-04-21 09:14 | 35.42528 | 139.88573 | 4196 ft | 158 kts | 328° |
| 2026-04-21 09:14 | 35.43493 | 139.87892 | 3842 ft | 161 kts | 329° |
| 2026-04-21 09:14 | 35.44471 | 139.87203 | 3476 ft | 164 kts | 330° |
| 2026-04-21 09:15 | 35.45459 | 139.86510 | 3113 ft | 166 kts | 330° |
| 2026-04-21 09:15 | 35.46464 | 139.85802 | 2749 ft | 164 kts | 330° |
| 2026-04-21 09:15 | 35.47429 | 139.85120 | 2381 ft | 156 kts | 330° |
| 2026-04-21 09:15 | 35.48351 | 139.84471 | 2007 ft | 150 kts | 330° |
| 2026-04-21 09:16 | 35.49186 | 139.83882 | 1660 ft | 147 kts | 330° |
| 2026-04-21 09:16 | 35.49996 | 139.83310 | 1318 ft | 144 kts | 330° |
| 2026-04-21 09:16 | 35.50703 | 139.82811 | 1015 ft | 143 kts | 331° |
| 2026-04-21 09:16 | 35.51605 | 139.82178 | 629 ft | 140 kts | 330° |
| 2026-04-21 09:17 | 35.52252 | 139.81715 | 499 ft | 127 kts | 329° |
| 2026-04-21 09:17 | 35.53501 | 139.80841 | 179 ft | 122 kts | 330° |
| 2026-04-21 09:17 | 35.54126 | 139.80399 | 74 ft | 123 kts | 330° |
| 2026-04-21 09:18 | 35.55119 | 139.79698 | 28 ft | 45 kts | 332° |
| 2026-04-21 09:18 | 35.55353 | 139.79523 | 28 ft | 37 kts | 320° |
| 2026-04-21 09:19 | 35.55516 | 139.79265 | 28 ft | 10 kts | 295° |
| 2026-04-21 09:19 | 35.55524 | 139.79199 | 28 ft | 12 kts | 253° |
| 2026-04-21 09:19 | 35.55492 | 139.79134 | 28 ft | 13 kts | 238° |
| 2026-04-21 09:19 | 35.55451 | 139.79047 | 28 ft | 14 kts | 242° |
| 2026-04-21 09:20 | 35.55418 | 139.78972 | 28 ft | 15 kts | 240° |
| 2026-04-21 09:20 | 35.55376 | 139.78926 | 28 ft | 15 kts | 211° |
| 2026-04-21 09:20 | 35.55342 | 139.78880 | 28 ft | 14 kts | 241° |
| 2026-04-21 09:20 | 35.55324 | 139.78841 | 28 ft | 6 kts | 241° |
| 2026-04-21 09:21 | 35.55319 | 139.78830 | 28 ft | 0 kts | 240° |